sensor_id;sensor_type;location;lat;lon;timestamp;temperature;humidity
73133;DHT22;61320;52.008;4.530;2022-08-06T00:00:41;16.57;69.98
73133;DHT22;61320;52.008;4.530;2022-08-06T00:03:07;16.64;70.79
73133;DHT22;61320;52.008;4.530;2022-08-06T00:05:33;16.73;70.41
73133;DHT22;61320;52.008;4.530;2022-08-06T00:07:59;16.76;71.05
73133;DHT22;61320;52.008;4.530;2022-08-06T00:10:25;16.76;67.51
73133;DHT22;61320;52.008;4.530;2022-08-06T00:12:53;16.72;68.94
73133;DHT22;61320;52.008;4.530;2022-08-06T00:15:18;16.66;69.64
73133;DHT22;61320;52.008;4.530;2022-08-06T00:17:45;16.69;70.27
73133;DHT22;61320;52.008;4.530;2022-08-06T00:20:13;16.74;71.04
73133;DHT22;61320;52.008;4.530;2022-08-06T00:22:39;16.70;67.97
73133;DHT22;61320;52.008;4.530;2022-08-06T00:25:05;16.64;68.71
73133;DHT22;61320;52.008;4.530;2022-08-06T00:27:33;16.49;68.95
73133;DHT22;61320;52.008;4.530;2022-08-06T00:29:59;16.39;68.45
73133;DHT22;61320;52.008;4.530;2022-08-06T00:32:25;16.41;71.90
73133;DHT22;61320;52.008;4.530;2022-08-06T00:34:50;16.49;70.49
73133;DHT22;61320;52.008;4.530;2022-08-06T00:37:19;16.51;70.06
73133;DHT22;61320;52.008;4.530;2022-08-06T00:39:45;16.51;70.49
73133;DHT22;61320;52.008;4.530;2022-08-06T00:42:16;16.49;71.29
73133;DHT22;61320;52.008;4.530;2022-08-06T00:44:42;16.52;71.44
73133;DHT22;61320;52.008;4.530;2022-08-06T00:47:08;16.59;71.37
73133;DHT22;61320;52.008;4.530;2022-08-06T00:49:33;16.57;70.92
73133;DHT22;61320;52.008;4.530;2022-08-06T00:51:59;16.60;68.30
73133;DHT22;61320;52.008;4.530;2022-08-06T00:54:27;16.56;71.09
73133;DHT22;61320;52.008;4.530;2022-08-06T00:56:53;16.60;70.18
73133;DHT22;61320;52.008;4.530;2022-08-06T00:59:18;16.60;71.42
73133;DHT22;61320;52.008;4.530;2022-08-06T01:01:44;16.60;70.41
73133;DHT22;61320;52.008;4.530;2022-08-06T01:04:09;16.62;71.59
73133;DHT22;61320;52.008;4.530;2022-08-06T01:06:38;16.56;70.20
73133;DHT22;61320;52.008;4.530;2022-08-06T01:09:04;16.57;71.33
73133;DHT22;61320;52.008;4.530;2022-08-06T01:11:30;16.57;71.26
73133;DHT22;61320;52.008;4.530;2022-08-06T01:13:55;16.59;70.34
73133;DHT22;61320;52.008;4.530;2022-08-06T01:16:39;16.45;67.03
73133;DHT22;61320;52.008;4.530;2022-08-06T01:25:36;16.05;71.68
73133;DHT22;61320;52.008;4.530;2022-08-06T01:28:12;15.94;69.38
73133;DHT22;61320;52.008;4.530;2022-08-06T01:30:49;15.98;72.44
73133;DHT22;61320;52.008;4.530;2022-08-06T01:33:25;16.09;72.93
73133;DHT22;61320;52.008;4.530;2022-08-06T01:35:56;16.18;72.88
73133;DHT22;61320;52.008;4.530;2022-08-06T01:38:25;16.25;72.76
73133;DHT22;61320;52.008;4.530;2022-08-06T01:40:54;16.32;71.91
73133;DHT22;61320;52.008;4.530;2022-08-06T01:43:22;16.38;71.67
73133;DHT22;61320;52.008;4.530;2022-08-06T01:45:51;16.41;72.06
73133;DHT22;61320;52.008;4.530;2022-08-06T01:48:23;16.38;71.77
73133;DHT22;61320;52.008;4.530;2022-08-06T01:50:54;16.38;71.62
73133;DHT22;61320;52.008;4.530;2022-08-06T01:53:37;16.41;70.95
73133;DHT22;61320;52.008;4.530;2022-08-06T01:56:06;16.41;71.88
73133;DHT22;61320;52.008;4.530;2022-08-06T01:58:45;16.33;68.32
73133;DHT22;61320;52.008;4.530;2022-08-06T02:01:12;16.15;66.98
73133;DHT22;61320;52.008;4.530;2022-08-06T02:03:53;16.00;71.20
73133;DHT22;61320;52.008;4.530;2022-08-06T02:06:34;16.00;70.32
73133;DHT22;61320;52.008;4.530;2022-08-06T02:09:04;15.87;68.75
73133;DHT22;61320;52.008;4.530;2022-08-06T02:11:34;15.60;70.00
73133;DHT22;61320;52.008;4.530;2022-08-06T02:14:02;15.50;70.42
73133;DHT22;61320;52.008;4.530;2022-08-06T02:16:35;15.37;72.16
73133;DHT22;61320;52.008;4.530;2022-08-06T02:19:04;15.39;73.24
73133;DHT22;61320;52.008;4.530;2022-08-06T02:21:33;15.47;73.28
73133;DHT22;61320;52.008;4.530;2022-08-06T02:24:05;15.64;74.35
73133;DHT22;61320;52.008;4.530;2022-08-06T02:26:41;15.71;73.71
73133;DHT22;61320;52.008;4.530;2022-08-06T02:29:11;15.75;72.25
73133;DHT22;61320;52.008;4.530;2022-08-06T02:31:45;15.71;72.29
73133;DHT22;61320;52.008;4.530;2022-08-06T02:34:11;15.74;72.69
73133;DHT22;61320;52.008;4.530;2022-08-06T02:36:55;15.81;73.75
73133;DHT22;61320;52.008;4.530;2022-08-06T02:39:48;15.87;73.39
73133;DHT22;61320;52.008;4.530;2022-08-06T02:42:23;15.91;69.64
73133;DHT22;61320;52.008;4.530;2022-08-06T02:47:52;15.88;69.86
73133;DHT22;61320;52.008;4.530;2022-08-06T02:50:23;15.71;69.81
73133;DHT22;61320;52.008;4.530;2022-08-06T02:52:58;15.50;71.45
73133;DHT22;61320;52.008;4.530;2022-08-06T02:55:35;15.40;71.60
73133;DHT22;61320;52.008;4.530;2022-08-06T02:58:32;15.35;71.10
73133;DHT22;61320;52.008;4.530;2022-08-06T03:00:58;15.39;70.91
73133;DHT22;61320;52.008;4.530;2022-08-06T03:03:31;15.44;73.68
73133;DHT22;61320;52.008;4.530;2022-08-06T03:06:01;15.47;71.88
73133;DHT22;61320;52.008;4.530;2022-08-06T03:08:29;15.54;73.71
73133;DHT22;61320;52.008;4.530;2022-08-06T03:10:57;15.53;71.84
73133;DHT22;61320;52.008;4.530;2022-08-06T03:13:25;15.50;72.05
73133;DHT22;61320;52.008;4.530;2022-08-06T03:15:53;15.49;71.80
73133;DHT22;61320;52.008;4.530;2022-08-06T03:18:21;15.42;71.49
73133;DHT22;61320;52.008;4.530;2022-08-06T03:20:50;15.29;73.02
73133;DHT22;61320;52.008;4.530;2022-08-06T03:23:17;15.30;74.36
73133;DHT22;61320;52.008;4.530;2022-08-06T03:25:48;15.40;73.84
73133;DHT22;61320;52.008;4.530;2022-08-06T03:28:16;15.47;74.25
73133;DHT22;61320;52.008;4.530;2022-08-06T03:30:43;15.51;73.40
73133;DHT22;61320;52.008;4.530;2022-08-06T03:33:15;15.53;73.09
73133;DHT22;61320;52.008;4.530;2022-08-06T03:35:56;15.57;74.22
73133;DHT22;61320;52.008;4.530;2022-08-06T03:38:25;15.58;70.82
73133;DHT22;61320;52.008;4.530;2022-08-06T03:40:57;15.46;70.82
73133;DHT22;61320;52.008;4.530;2022-08-06T03:43:22;15.27;71.34
73133;DHT22;61320;52.008;4.530;2022-08-06T03:45:52;15.22;73.41
73133;DHT22;61320;52.008;4.530;2022-08-06T03:48:28;15.32;74.81
73133;DHT22;61320;52.008;4.530;2022-08-06T03:50:57;15.46;73.57
73133;DHT22;61320;52.008;4.530;2022-08-06T03:53:27;15.47;71.03
73133;DHT22;61320;52.008;4.530;2022-08-06T03:55:57;15.50;74.14
73133;DHT22;61320;52.008;4.530;2022-08-06T03:58:25;15.47;72.26
73133;DHT22;61320;52.008;4.530;2022-08-06T04:00:56;15.37;71.91
73133;DHT22;61320;52.008;4.530;2022-08-06T04:03:24;15.27;72.62
73133;DHT22;61320;52.008;4.530;2022-08-06T04:05:52;15.26;74.05
73133;DHT22;61320;52.008;4.530;2022-08-06T04:08:19;15.30;72.24
73133;DHT22;61320;52.008;4.530;2022-08-06T04:10:47;15.37;73.74
73133;DHT22;61320;52.008;4.530;2022-08-06T04:13:17;15.39;74.04
73133;DHT22;61320;52.008;4.530;2022-08-06T04:15:44;15.44;74.31
73133;DHT22;61320;52.008;4.530;2022-08-06T04:18:14;15.53;74.37
73133;DHT22;61320;52.008;4.530;2022-08-06T04:20:45;15.56;74.38
73133;DHT22;61320;52.008;4.530;2022-08-06T04:23:14;15.58;73.20
73133;DHT22;61320;52.008;4.530;2022-08-06T04:25:52;15.56;71.90
73133;DHT22;61320;52.008;4.530;2022-08-06T04:28:24;15.47;73.96
73133;DHT22;61320;52.008;4.530;2022-08-06T04:30:53;15.51;73.19
73133;DHT22;61320;52.008;4.530;2022-08-06T04:33:22;15.50;71.93
73133;DHT22;61320;52.008;4.530;2022-08-06T04:35:48;15.40;72.62
73133;DHT22;61320;52.008;4.530;2022-08-06T04:38:16;15.44;74.94
73133;DHT22;61320;52.008;4.530;2022-08-06T04:40:42;15.47;73.68
73133;DHT22;61320;52.008;4.530;2022-08-06T04:43:10;15.51;73.89
73133;DHT22;61320;52.008;4.530;2022-08-06T04:45:41;15.54;74.49
73133;DHT22;61320;52.008;4.530;2022-08-06T04:48:11;15.60;74.86
73133;DHT22;61320;52.008;4.530;2022-08-06T04:50:42;15.66;74.91
73133;DHT22;61320;52.008;4.530;2022-08-06T04:53:13;15.74;74.79
73133;DHT22;61320;52.008;4.530;2022-08-06T04:55:41;15.83;74.36
73133;DHT22;61320;52.008;4.530;2022-08-06T04:58:09;15.84;74.47
73133;DHT22;61320;52.008;4.530;2022-08-06T05:00:40;15.90;74.47
73133;DHT22;61320;52.008;4.530;2022-08-06T05:03:06;15.91;74.31
73133;DHT22;61320;52.008;4.530;2022-08-06T05:05:39;15.94;74.31
73133;DHT22;61320;52.008;4.530;2022-08-06T05:08:07;16.00;73.87
73133;DHT22;61320;52.008;4.530;2022-08-06T05:10:51;16.05;74.05
73133;DHT22;61320;52.008;4.530;2022-08-06T05:13:33;16.05;74.41
73133;DHT22;61320;52.008;4.530;2022-08-06T05:16:07;16.11;73.98
73133;DHT22;61320;52.008;4.530;2022-08-06T05:18:37;16.15;73.93
73133;DHT22;61320;52.008;4.530;2022-08-06T05:21:12;16.16;72.18
73133;DHT22;61320;52.008;4.530;2022-08-06T05:23:53;16.19;73.03
73133;DHT22;61320;52.008;4.530;2022-08-06T05:26:22;16.14;73.28
73133;DHT22;61320;52.008;4.530;2022-08-06T05:28:48;16.21;74.18
73133;DHT22;61320;52.008;4.530;2022-08-06T05:31:14;16.26;74.06
73133;DHT22;61320;52.008;4.530;2022-08-06T05:33:42;16.32;74.37
73133;DHT22;61320;52.008;4.530;2022-08-06T05:36:10;16.33;74.26
73133;DHT22;61320;52.008;4.530;2022-08-06T05:38:39;16.38;74.06
73133;DHT22;61320;52.008;4.530;2022-08-06T05:41:10;16.46;74.16
73133;DHT22;61320;52.008;4.530;2022-08-06T05:43:40;16.51;73.97
73133;DHT22;61320;52.008;4.530;2022-08-06T05:46:11;16.56;73.15
73133;DHT22;61320;52.008;4.530;2022-08-06T05:48:42;16.62;73.48
73133;DHT22;61320;52.008;4.530;2022-08-06T05:57:03;16.73;71.76
73133;DHT22;61320;52.008;4.530;2022-08-06T05:59:44;16.81;72.97
73133;DHT22;61320;52.008;4.530;2022-08-06T06:02:14;16.84;73.35
73133;DHT22;61320;52.008;4.530;2022-08-06T06:04:47;16.91;73.22
73133;DHT22;61320;52.008;4.530;2022-08-06T06:07:13;16.95;73.20
73133;DHT22;61320;52.008;4.530;2022-08-06T06:09:45;17.00;73.74
73133;DHT22;61320;52.008;4.530;2022-08-06T06:12:11;17.06;73.47
73133;DHT22;61320;52.008;4.530;2022-08-06T06:14:56;17.10;73.28
73133;DHT22;61320;52.008;4.530;2022-08-06T06:20:52;17.18;72.49
73133;DHT22;61320;52.008;4.530;2022-08-06T06:23:44;17.24;73.19
73133;DHT22;61320;52.008;4.530;2022-08-06T06:26:37;17.25;72.79
73133;DHT22;61320;52.008;4.530;2022-08-06T06:29:33;17.32;73.36
73133;DHT22;61320;52.008;4.530;2022-08-06T06:37:55;17.45;73.29
73133;DHT22;61320;52.008;4.530;2022-08-06T06:46:41;17.71;73.04
73133;DHT22;61320;52.008;4.530;2022-08-06T06:49:22;17.78;73.41
73133;DHT22;61320;52.008;4.530;2022-08-06T06:51:59;17.83;71.54
73133;DHT22;61320;52.008;4.530;2022-08-06T06:54:39;17.90;71.06
73133;DHT22;61320;52.008;4.530;2022-08-06T06:57:11;17.97;71.11
73133;DHT22;61320;52.008;4.530;2022-08-06T06:59:45;18.03;71.60
73133;DHT22;61320;52.008;4.530;2022-08-06T07:02:19;18.13;71.68
73133;DHT22;61320;52.008;4.530;2022-08-06T07:04:51;18.24;70.02
73133;DHT22;61320;52.008;4.530;2022-08-06T07:07:21;18.55;70.05
73133;DHT22;61320;52.008;4.530;2022-08-06T07:09:57;19.45;67.19
73133;DHT22;61320;52.008;4.530;2022-08-06T07:12:27;20.43;64.40
73133;DHT22;61320;52.008;4.530;2022-08-06T07:14:55;21.58;57.22
73133;DHT22;61320;52.008;4.530;2022-08-06T07:17:25;22.61;58.96
73133;DHT22;61320;52.008;4.530;2022-08-06T07:20:00;22.98;56.78
73133;DHT22;61320;52.008;4.530;2022-08-06T07:22:29;21.97;59.70
73133;DHT22;61320;52.008;4.530;2022-08-06T07:24:59;21.51;58.18
73133;DHT22;61320;52.008;4.530;2022-08-06T07:27:32;20.85;60.68
73133;DHT22;61320;52.008;4.530;2022-08-06T07:30:00;20.50;62.86
73133;DHT22;61320;52.008;4.530;2022-08-06T07:32:33;20.26;64.47
73133;DHT22;61320;52.008;4.530;2022-08-06T07:35:04;20.09;62.60
73133;DHT22;61320;52.008;4.530;2022-08-06T07:37:31;20.01;63.63
73133;DHT22;61320;52.008;4.530;2022-08-06T07:40:00;20.04;62.80
73133;DHT22;61320;52.008;4.530;2022-08-06T07:42:28;20.18;63.93
73133;DHT22;61320;52.008;4.530;2022-08-06T07:45:00;20.29;62.81
73133;DHT22;61320;52.008;4.530;2022-08-06T07:47:41;20.11;58.31
73133;DHT22;61320;52.008;4.530;2022-08-06T07:50:12;19.97;61.38
73133;DHT22;61320;52.008;4.530;2022-08-06T07:52:42;19.94;54.72
73133;DHT22;61320;52.008;4.530;2022-08-06T07:55:09;19.89;63.71
73133;DHT22;61320;52.008;4.530;2022-08-06T07:57:39;19.92;55.66
73133;DHT22;61320;52.008;4.530;2022-08-06T08:00:06;19.84;59.37
73133;DHT22;61320;52.008;4.530;2022-08-06T08:02:32;19.85;64.64
73133;DHT22;61320;52.008;4.530;2022-08-06T08:05:01;19.94;65.64
73133;DHT22;61320;52.008;4.530;2022-08-06T08:07:46;19.98;63.57
73133;DHT22;61320;52.008;4.530;2022-08-06T08:10:17;20.06;57.24
73133;DHT22;61320;52.008;4.530;2022-08-06T08:12:44;20.22;55.67
73133;DHT22;61320;52.008;4.530;2022-08-06T08:15:10;20.26;54.98
73133;DHT22;61320;52.008;4.530;2022-08-06T08:17:39;20.26;55.56
73133;DHT22;61320;52.008;4.530;2022-08-06T08:20:06;20.21;58.60
73133;DHT22;61320;52.008;4.530;2022-08-06T08:22:32;20.42;62.32
73133;DHT22;61320;52.008;4.530;2022-08-06T08:25:00;20.56;63.36
73133;DHT22;61320;52.008;4.530;2022-08-06T08:27:29;20.63;59.79
73133;DHT22;61320;52.008;4.530;2022-08-06T08:29:57;20.66;62.54
73133;DHT22;61320;52.008;4.530;2022-08-06T08:32:25;20.72;59.62
73133;DHT22;61320;52.008;4.530;2022-08-06T08:34:51;20.70;60.74
73133;DHT22;61320;52.008;4.530;2022-08-06T08:37:16;20.73;60.58
73133;DHT22;61320;52.008;4.530;2022-08-06T08:39:41;20.85;60.76
73133;DHT22;61320;52.008;4.530;2022-08-06T08:42:15;20.95;57.12
73133;DHT22;61320;52.008;4.530;2022-08-06T08:44:43;21.10;60.50
73133;DHT22;61320;52.008;4.530;2022-08-06T08:47:13;21.21;61.08
73133;DHT22;61320;52.008;4.530;2022-08-06T08:49:50;21.30;56.18
73133;DHT22;61320;52.008;4.530;2022-08-06T08:52:28;21.31;57.50
73133;DHT22;61320;52.008;4.530;2022-08-06T08:55:03;21.31;53.57
73133;DHT22;61320;52.008;4.530;2022-08-06T08:57:40;21.32;58.91
73133;DHT22;61320;52.008;4.530;2022-08-06T09:00:09;21.43;57.85
73133;DHT22;61320;52.008;4.530;2022-08-06T09:02:39;21.61;59.14
73133;DHT22;61320;52.008;4.530;2022-08-06T09:05:11;21.75;61.39
73133;DHT22;61320;52.008;4.530;2022-08-06T09:07:41;21.83;53.37
73133;DHT22;61320;52.008;4.530;2022-08-06T09:10:09;21.83;57.20
73133;DHT22;61320;52.008;4.530;2022-08-06T09:12:36;21.93;58.87
73133;DHT22;61320;52.008;4.530;2022-08-06T09:15:07;22.00;55.75
73133;DHT22;61320;52.008;4.530;2022-08-06T09:17:33;22.06;57.79
73133;DHT22;61320;52.008;4.530;2022-08-06T09:19:59;22.06;54.08
73133;DHT22;61320;52.008;4.530;2022-08-06T09:22:32;21.96;53.14
73133;DHT22;61320;52.008;4.530;2022-08-06T09:25:05;21.86;51.91
73133;DHT22;61320;52.008;4.530;2022-08-06T09:27:35;21.73;54.47
73133;DHT22;61320;52.008;4.530;2022-08-06T09:30:05;21.73;54.77
73133;DHT22;61320;52.008;4.530;2022-08-06T09:32:43;21.73;56.10
73133;DHT22;61320;52.008;4.530;2022-08-06T09:35:28;21.86;48.41
73133;DHT22;61320;52.008;4.530;2022-08-06T09:38:02;21.86;48.92
73133;DHT22;61320;52.008;4.530;2022-08-06T09:40:28;21.79;50.56
73133;DHT22;61320;52.008;4.530;2022-08-06T09:42:57;21.78;53.50
73133;DHT22;61320;52.008;4.530;2022-08-06T09:45:24;21.83;51.14
73133;DHT22;61320;52.008;4.530;2022-08-06T09:48:07;21.89;57.06
73133;DHT22;61320;52.008;4.530;2022-08-06T09:50:43;21.90;52.24
73133;DHT22;61320;52.008;4.530;2022-08-06T09:53:11;22.06;52.94
73133;DHT22;61320;52.008;4.530;2022-08-06T09:55:37;22.89;49.46
73133;DHT22;61320;52.008;4.530;2022-08-06T09:58:06;23.47;54.78
73133;DHT22;61320;52.008;4.530;2022-08-06T10:00:43;24.08;50.52
73133;DHT22;61320;52.008;4.530;2022-08-06T10:03:11;24.55;52.11
73133;DHT22;61320;52.008;4.530;2022-08-06T10:05:44;25.00;50.88
73133;DHT22;61320;52.008;4.530;2022-08-06T10:08:17;25.68;49.94
73133;DHT22;61320;52.008;4.530;2022-08-06T10:10:49;26.60;39.44
73133;DHT22;61320;52.008;4.530;2022-08-06T10:13:26;27.28;43.55
73133;DHT22;61320;52.008;4.530;2022-08-06T10:15:56;28.24;36.55
73133;DHT22;61320;52.008;4.530;2022-08-06T10:18:35;29.31;39.87
73133;DHT22;61320;52.008;4.530;2022-08-06T10:21:10;29.93;40.90
73133;DHT22;61320;52.008;4.530;2022-08-06T10:23:41;29.24;41.82
73133;DHT22;61320;52.008;4.530;2022-08-06T10:26:09;28.25;38.33
73133;DHT22;61320;52.008;4.530;2022-08-06T10:28:37;27.67;40.50
73133;DHT22;61320;52.008;4.530;2022-08-06T10:31:06;28.93;33.19
73133;DHT22;61320;52.008;4.530;2022-08-06T10:33:41;29.98;38.13
73133;DHT22;61320;52.008;4.530;2022-08-06T10:36:11;31.16;39.36
73133;DHT22;61320;52.008;4.530;2022-08-06T10:38:41;31.81;35.54
73133;DHT22;61320;52.008;4.530;2022-08-06T10:41:12;32.69;34.62
73133;DHT22;61320;52.008;4.530;2022-08-06T10:43:39;33.43;28.95
73133;DHT22;61320;52.008;4.530;2022-08-06T10:46:11;32.99;27.68
73133;DHT22;61320;52.008;4.530;2022-08-06T10:48:45;32.80;31.57
73133;DHT22;61320;52.008;4.530;2022-08-06T10:51:13;32.56;29.58
73133;DHT22;61320;52.008;4.530;2022-08-06T10:53:44;32.21;32.01
73133;DHT22;61320;52.008;4.530;2022-08-06T10:56:13;31.40;35.00
73133;DHT22;61320;52.008;4.530;2022-08-06T10:58:40;31.50;33.55
73133;DHT22;61320;52.008;4.530;2022-08-06T11:04:32;29.66;38.02
73133;DHT22;61320;52.008;4.530;2022-08-06T11:12:51;28.00;32.64
73133;DHT22;61320;52.008;4.530;2022-08-06T11:15:19;27.42;36.83
73133;DHT22;61320;52.008;4.530;2022-08-06T11:17:46;27.30;37.87
73133;DHT22;61320;52.008;4.530;2022-08-06T11:20:42;27.35;39.69
73133;DHT22;61320;52.008;4.530;2022-08-06T11:25:46;27.16;40.71
73133;DHT22;61320;52.008;4.530;2022-08-06T11:31:35;26.70;35.73
73133;DHT22;61320;52.008;4.530;2022-08-06T11:34:12;26.16;35.72
73133;DHT22;61320;52.008;4.530;2022-08-06T11:39:12;25.78;43.46
73133;DHT22;61320;52.008;4.530;2022-08-06T11:41:49;25.85;36.83
73133;DHT22;61320;52.008;4.530;2022-08-06T11:44:17;25.51;44.19
73133;DHT22;61320;52.008;4.530;2022-08-06T11:46:48;25.61;43.86
73133;DHT22;61320;52.008;4.530;2022-08-06T11:49:48;25.76;38.24
73133;DHT22;61320;52.008;4.530;2022-08-06T11:52:08;25.69;41.88
73133;DHT22;61320;52.008;4.530;2022-08-06T11:57:20;25.07;40.20
73133;DHT22;61320;52.008;4.530;2022-08-06T12:08:16;25.23;39.23
73133;DHT22;61320;52.008;4.530;2022-08-06T12:11:22;24.98;39.91
73133;DHT22;61320;52.008;4.530;2022-08-06T12:13:52;24.76;40.51
73133;DHT22;61320;52.008;4.530;2022-08-06T12:18:58;25.07;42.93
73133;DHT22;61320;52.008;4.530;2022-08-06T12:21:27;25.23;42.49
73133;DHT22;61320;52.008;4.530;2022-08-06T12:23:56;25.39;41.36
73133;DHT22;61320;52.008;4.530;2022-08-06T12:26:31;25.31;35.74
73133;DHT22;61320;52.008;4.530;2022-08-06T12:29:02;24.95;38.01
73133;DHT22;61320;52.008;4.530;2022-08-06T12:31:34;24.74;41.02
73133;DHT22;61320;52.008;4.530;2022-08-06T12:34:00;24.69;37.35
73133;DHT22;61320;52.008;4.530;2022-08-06T12:36:31;24.73;39.46
73133;DHT22;61320;52.008;4.530;2022-08-06T12:39:00;24.91;42.93
73133;DHT22;61320;52.008;4.530;2022-08-06T12:41:37;25.20;44.11
73133;DHT22;61320;52.008;4.530;2022-08-06T12:44:08;25.34;42.44
73133;DHT22;61320;52.008;4.530;2022-08-06T12:46:34;25.48;42.54
73133;DHT22;61320;52.008;4.530;2022-08-06T12:49:00;25.59;37.54
73133;DHT22;61320;52.008;4.530;2022-08-06T12:51:29;25.68;44.68
73133;DHT22;61320;52.008;4.530;2022-08-06T12:53:59;25.61;37.38
73133;DHT22;61320;52.008;4.530;2022-08-06T12:56:27;25.55;42.00
73133;DHT22;61320;52.008;4.530;2022-08-06T12:59:01;25.49;37.04
73133;DHT22;61320;52.008;4.530;2022-08-06T13:01:30;25.41;43.51
73133;DHT22;61320;52.008;4.530;2022-08-06T13:04:00;25.37;39.93
73133;DHT22;61320;52.008;4.530;2022-08-06T13:06:28;25.27;41.90
73133;DHT22;61320;52.008;4.530;2022-08-06T13:08:55;25.34;36.39
73133;DHT22;61320;52.008;4.530;2022-08-06T13:11:29;25.39;41.13
73133;DHT22;61320;52.008;4.530;2022-08-06T13:14:07;25.44;41.37
73133;DHT22;61320;52.008;4.530;2022-08-06T13:16:42;25.44;41.08
73133;DHT22;61320;52.008;4.530;2022-08-06T13:19:12;25.62;43.17
73133;DHT22;61320;52.008;4.530;2022-08-06T13:21:39;25.72;36.53
73133;DHT22;61320;52.008;4.530;2022-08-06T13:24:08;25.34;38.55
73133;DHT22;61320;52.008;4.530;2022-08-06T13:26:50;25.10;44.53
73133;DHT22;61320;52.008;4.530;2022-08-06T13:29:34;25.15;37.63
73133;DHT22;61320;52.008;4.530;2022-08-06T13:32:12;24.87;40.63
73133;DHT22;61320;52.008;4.530;2022-08-06T13:34:49;24.87;37.48
73133;DHT22;61320;52.008;4.530;2022-08-06T13:37:40;24.76;38.32
73133;DHT22;61320;52.008;4.530;2022-08-06T13:40:03;24.77;41.72
73133;DHT22;61320;52.008;4.530;2022-08-06T13:42:32;24.83;42.83
73133;DHT22;61320;52.008;4.530;2022-08-06T13:44:57;25.00;42.98
73133;DHT22;61320;52.008;4.530;2022-08-06T13:47:28;25.15;42.01
73133;DHT22;61320;52.008;4.530;2022-08-06T13:50:08;25.25;42.94
73133;DHT22;61320;52.008;4.530;2022-08-06T13:52:34;25.37;39.31
73133;DHT22;61320;52.008;4.530;2022-08-06T13:55:06;25.31;43.31
73133;DHT22;61320;52.008;4.530;2022-08-06T13:57:34;25.37;40.42
73133;DHT22;61320;52.008;4.530;2022-08-06T14:00:04;25.38;41.34
73133;DHT22;61320;52.008;4.530;2022-08-06T14:02:33;25.46;41.24
73133;DHT22;61320;52.008;4.530;2022-08-06T14:05:01;25.30;38.00
73133;DHT22;61320;52.008;4.530;2022-08-06T14:07:31;25.10;43.41
73133;DHT22;61320;52.008;4.530;2022-08-06T14:10:05;25.10;42.51
73133;DHT22;61320;52.008;4.530;2022-08-06T14:12:31;25.15;41.68
73133;DHT22;61320;52.008;4.530;2022-08-06T14:14:57;25.30;41.83
73133;DHT22;61320;52.008;4.530;2022-08-06T14:17:28;25.35;40.26
73133;DHT22;61320;52.008;4.530;2022-08-06T14:19:59;25.37;41.63
73133;DHT22;61320;52.008;4.530;2022-08-06T14:22:25;25.38;39.69
73133;DHT22;61320;52.008;4.530;2022-08-06T14:24:50;25.35;37.68
73133;DHT22;61320;52.008;4.530;2022-08-06T14:27:16;25.31;43.45
73133;DHT22;61320;52.008;4.530;2022-08-06T14:29:42;25.30;41.06
73133;DHT22;61320;52.008;4.530;2022-08-06T14:32:08;25.18;37.55
73133;DHT22;61320;52.008;4.530;2022-08-06T14:34:34;25.23;41.98
73133;DHT22;61320;52.008;4.530;2022-08-06T14:37:03;25.34;40.66
73133;DHT22;61320;52.008;4.530;2022-08-06T14:39:29;25.45;44.14
73133;DHT22;61320;52.008;4.530;2022-08-06T14:41:54;25.58;39.83
73133;DHT22;61320;52.008;4.530;2022-08-06T14:44:38;25.66;40.41
73133;DHT22;61320;52.008;4.530;2022-08-06T14:47:24;25.78;42.10
73133;DHT22;61320;52.008;4.530;2022-08-06T14:49:53;25.68;38.74
73133;DHT22;61320;52.008;4.530;2022-08-06T14:52:19;25.59;44.69
73133;DHT22;61320;52.008;4.530;2022-08-06T14:54:44;25.52;38.94
73133;DHT22;61320;52.008;4.530;2022-08-06T14:57:13;25.51;41.85
73133;DHT22;61320;52.008;4.530;2022-08-06T14:59:39;25.55;38.60
73133;DHT22;61320;52.008;4.530;2022-08-06T15:02:05;25.45;39.39
73133;DHT22;61320;52.008;4.530;2022-08-06T15:04:30;25.42;38.56
73133;DHT22;61320;52.008;4.530;2022-08-06T15:06:56;25.38;43.90
73133;DHT22;61320;52.008;4.530;2022-08-06T15:09:22;25.48;39.37
73133;DHT22;61320;52.008;4.530;2022-08-06T15:11:48;25.46;41.98
73133;DHT22;61320;52.008;4.530;2022-08-06T15:14:14;25.55;39.15
73133;DHT22;61320;52.008;4.530;2022-08-06T15:16:40;25.59;37.59
73133;DHT22;61320;52.008;4.530;2022-08-06T15:19:06;25.52;41.27
73133;DHT22;61320;52.008;4.530;2022-08-06T15:21:31;25.34;39.12
73133;DHT22;61320;52.008;4.530;2022-08-06T15:23:58;25.06;42.90
73133;DHT22;61320;52.008;4.530;2022-08-06T15:26:25;25.13;41.80
73133;DHT22;61320;52.008;4.530;2022-08-06T15:28:54;25.30;43.75
73133;DHT22;61320;52.008;4.530;2022-08-06T15:31:20;25.45;42.71
73133;DHT22;61320;52.008;4.530;2022-08-06T15:33:46;25.48;37.51
73133;DHT22;61320;52.008;4.530;2022-08-06T15:36:12;25.38;41.80
73133;DHT22;61320;52.008;4.530;2022-08-06T15:38:40;25.42;40.94
73133;DHT22;61320;52.008;4.530;2022-08-06T15:41:07;25.45;41.56
73133;DHT22;61320;52.008;4.530;2022-08-06T15:43:33;25.31;37.58
73133;DHT22;61320;52.008;4.530;2022-08-06T15:45:59;25.00;41.58
73133;DHT22;61320;52.008;4.530;2022-08-06T15:48:26;24.94;40.33
73133;DHT22;61320;52.008;4.530;2022-08-06T15:50:52;24.91;40.76
73133;DHT22;61320;52.008;4.530;2022-08-06T15:53:19;24.95;39.92
73133;DHT22;61320;52.008;4.530;2022-08-06T15:55:46;24.93;41.48
73133;DHT22;61320;52.008;4.530;2022-08-06T15:58:11;24.93;41.87
73133;DHT22;61320;52.008;4.530;2022-08-06T16:00:39;24.97;43.60
73133;DHT22;61320;52.008;4.530;2022-08-06T16:03:06;24.97;40.55
73133;DHT22;61320;52.008;4.530;2022-08-06T16:05:36;24.93;42.27
73133;DHT22;61320;52.008;4.530;2022-08-06T16:08:01;24.77;43.16
73133;DHT22;61320;52.008;4.530;2022-08-06T16:10:27;24.72;44.08
73133;DHT22;61320;52.008;4.530;2022-08-06T16:12:54;24.70;41.95
73133;DHT22;61320;52.008;4.530;2022-08-06T16:15:19;24.70;41.18
73133;DHT22;61320;52.008;4.530;2022-08-06T16:17:45;24.59;42.21
73133;DHT22;61320;52.008;4.530;2022-08-06T16:20:12;24.53;39.24
73133;DHT22;61320;52.008;4.530;2022-08-06T16:22:38;24.43;42.01
73133;DHT22;61320;52.008;4.530;2022-08-06T16:25:04;24.32;45.38
73133;DHT22;61320;52.008;4.530;2022-08-06T16:27:29;24.12;40.50
73133;DHT22;61320;52.008;4.530;2022-08-06T16:29:55;23.82;44.78
73133;DHT22;61320;52.008;4.530;2022-08-06T16:32:21;23.77;43.53
73133;DHT22;61320;52.008;4.530;2022-08-06T16:34:49;23.70;45.02
73133;DHT22;61320;52.008;4.530;2022-08-06T16:37:19;23.58;44.48
73133;DHT22;61320;52.008;4.530;2022-08-06T16:39:44;23.47;45.74
73133;DHT22;61320;52.008;4.530;2022-08-06T16:42:10;23.40;43.69
73133;DHT22;61320;52.008;4.530;2022-08-06T16:44:38;23.22;44.81
73133;DHT22;61320;52.008;4.530;2022-08-06T16:47:06;23.18;47.11
73133;DHT22;61320;52.008;4.530;2022-08-06T16:49:32;23.15;46.25
73133;DHT22;61320;52.008;4.530;2022-08-06T16:51:58;23.13;48.31